Time;durP1;ratioP1;P1;durP2;ratioP2;P2;SDS_P1;SDS_P2;PMS_P1;PMS_P2;Temp;Humidity;BMP_temperature;BMP_pressure;BME280_temperature;BME280_humidity;BME280_pressure;Samples;Min_cycle;Max_cycle;Signal;HPM_P1;HPM_P2
2022/08/05 00:00:18;;;;;;;9.80;4.68;;;;;;;24.14;55.22;101360.22;5090574;28;20040;-76
2022/08/05 00:02:46;;;;;;;8.50;5.20;;;;;;;24.08;55.17;101351.69;5091679;28;20093;-76
2022/08/05 00:05:21;;;;;;;6.72;4.63;;;;;;;24.06;55.27;101353.78;5092175;28;20051;-76
2022/08/05 00:08:08;;;;;;;6.28;5.20;;;;;;;24.06;55.38;101358.41;5090625;28;20040;-76
2022/08/05 00:10:56;;;;;;;7.25;5.05;;;;;;;24.03;55.48;101345.06;5091970;28;20053;-77
2022/08/05 00:13:34;;;;;;;8.18;5.22;;;;;;;24.02;56.09;101333.22;5092173;28;20109;-77
2022/08/05 00:16:09;;;;;;;7.13;4.80;;;;;;;24.04;55.82;101344.03;5092111;28;20138;-76
2022/08/05 00:18:39;;;;;;;7.80;4.88;;;;;;;24.02;56.05;101335.13;5091722;28;20036;-76
2022/08/05 00:21:08;;;;;;;5.63;4.68;;;;;;;23.99;56.03;101336.34;5092229;28;20502;-77
2022/08/05 00:23:40;;;;;;;9.00;4.88;;;;;;;23.98;56.33;101337.38;5091962;28;20425;-77
2022/08/05 00:26:19;;;;;;;7.07;4.78;;;;;;;23.97;56.19;101338.41;5092084;28;20131;-77
2022/08/05 00:28:47;;;;;;;7.28;4.80;;;;;;;23.97;56.17;101335.69;5095050;28;20043;-75
2022/08/05 00:31:15;;;;;;;5.40;4.88;;;;;;;23.96;56.40;101331.22;5096320;28;20054;-76
2022/08/05 00:34:06;;;;;;;8.48;5.03;;;;;;;23.97;56.51;101324.69;5095592;28;20043;-76
2022/08/05 00:36:52;;;;;;;7.43;4.78;;;;;;;23.98;56.20;101328.31;5095142;28;20048;-75
2022/08/05 00:39:41;;;;;;;8.82;4.90;;;;;;;23.98;56.54;101342.03;5096517;28;20044;-76
2022/08/05 00:42:34;;;;;;;11.15;4.90;;;;;;;23.97;56.37;101351.28;5096435;28;20036;-77
2022/08/05 00:45:06;;;;;;;8.32;5.20;;;;;;;23.95;56.81;101345.13;5095703;28;20187;-77
2022/08/05 00:47:37;;;;;;;6.65;5.20;;;;;;;23.93;56.82;101338.97;5094899;28;20066;-76
2022/08/05 00:50:23;;;;;;;8.02;4.82;;;;;;;23.92;56.70;101335.38;5095278;28;20051;-75
2022/08/05 00:55:22;;;;;;;6.63;4.78;;;;;;;23.89;57.15;101332.16;5093775;28;20062;-75
2022/08/05 00:58:08;;;;;;;6.18;4.65;;;;;;;23.91;57.24;101330.94;5074868;28;20040;-76
2022/08/05 01:00:37;;;;;;;6.57;5.03;;;;;;;23.93;57.09;101333.50;5074887;28;20115;-77
2022/08/05 01:03:05;;;;;;;6.13;4.65;;;;;;;23.92;57.11;101340.88;5073337;28;20424;-76
2022/08/05 01:05:34;;;;;;;7.57;4.63;;;;;;;23.90;57.58;101334.72;5075831;28;20572;-77
2022/08/05 01:08:00;;;;;;;7.45;4.95;;;;;;;23.91;57.40;101325.44;5093957;28;20037;-76
2022/08/05 01:10:55;;;;;;;6.55;4.43;;;;;;;23.90;57.27;101321.00;5094001;28;20039;-77
2022/08/05 01:13:42;;;;;;;7.45;4.82;;;;;;;23.87;57.48;101309.53;5093405;28;20043;-78
2022/08/05 01:16:44;;;;;;;8.07;4.60;;;;;;;23.82;57.51;101318.31;5094551;28;20145;-76
2022/08/05 01:19:34;;;;;;;7.65;4.25;;;;;;;23.79;57.44;101323.31;5093471;28;20383;-78
2022/08/05 01:22:20;;;;;;;5.90;4.10;;;;;;;23.77;57.55;101324.31;5093311;28;20279;-78
2022/08/05 01:25:31;;;;;;;6.57;4.85;;;;;;;23.75;57.87;101339.25;5093493;28;20047;-78
2022/08/05 01:28:15;;;;;;;7.85;4.75;;;;;;;23.74;57.48;101346.63;5094415;28;20063;-78
2022/08/05 01:30:52;;;;;;;9.70;4.30;;;;;;;23.74;57.83;101349.38;5093960;28;20127;-78
2022/08/05 01:33:25;;;;;;;5.97;4.40;;;;;;;23.72;57.78;101367.91;5094439;28;20036;-80
2022/08/05 01:35:54;;;;;;;7.50;4.30;;;;;;;23.72;57.74;101375.28;5093363;28;20042;-78
2022/08/05 01:38:25;;;;;;;7.18;4.05;;;;;;;23.66;57.48;101376.00;5093873;28;20040;-79
2022/08/05 01:41:00;;;;;;;11.48;4.43;;;;;;;23.63;57.40;101382.72;5093927;28;20040;-77
2022/08/05 01:43:32;;;;;;;6.88;3.78;;;;;;;23.58;57.93;101400.72;5093170;28;20393;-78
2022/08/05 01:46:00;;;;;;;7.75;3.97;;;;;;;23.55;57.77;101401.94;5093090;28;20098;-78
2022/08/05 01:48:45;;;;;;;7.10;4.63;;;;;;;23.53;58.09;101408.63;5092853;28;20036;-79
2022/08/05 01:51:17;;;;;;;5.05;4.00;;;;;;;23.50;57.73;101415.31;5092881;28;20404;-78
2022/08/05 01:53:48;;;;;;;8.48;4.32;;;;;;;23.50;58.11;101401.59;5092850;28;20093;-79
2022/08/05 01:56:27;;;;;;;7.35;4.50;;;;;;;23.50;58.07;101398.84;5093961;27;20074;-79
2022/08/05 01:59:19;;;;;;;8.93;4.55;;;;;;;23.52;58.10;101391.31;5093950;28;20036;-79
2022/08/05 02:01:48;;;;;;;7.55;4.50;;;;;;;23.54;58.05;101402.09;5093616;28;20048;-78
2022/08/05 02:04:19;;;;;;;5.78;3.90;;;;;;;23.56;58.25;101422.00;5094005;28;20119;-78
2022/08/05 02:06:46;;;;;;;5.50;4.15;;;;;;;23.57;58.40;101421.81;5092447;28;20055;-77
2022/08/05 02:09:13;;;;;;;6.10;4.07;;;;;;;23.59;58.29;101425.22;5091991;28;20505;-78
2022/08/05 02:11:49;;;;;;;5.57;4.60;;;;;;;23.60;58.35;101431.56;5093874;28;20062;-77
2022/08/05 02:14:46;;;;;;;7.25;4.47;;;;;;;23.61;58.15;101414.09;5094306;28;20071;-77
2022/08/05 02:17:18;;;;;;;7.85;4.07;;;;;;;23.63;58.23;101401.03;5090088;28;20052;-77
2022/08/05 02:20:13;;;;;;;7.30;3.90;;;;;;;23.60;58.03;101385.81;5094995;28;20049;-77
2022/08/05 02:23:02;;;;;;;6.47;4.15;;;;;;;23.61;58.24;101376.56;5095688;28;20040;-77
2022/08/05 02:25:33;;;;;;;8.32;4.82;;;;;;;23.60;58.38;101377.59;5095741;28;20048;-77
2022/08/05 02:28:20;;;;;;;8.75;4.63;;;;;;;23.59;58.48;101372.28;5097273;28;20032;-77
2022/08/05 02:30:59;;;;;;;6.40;4.70;;;;;;;23.58;58.19;101368.69;5097131;28;20051;-79
2022/08/05 02:33:33;;;;;;;8.70;4.40;;;;;;;23.57;58.32;101364.25;5093431;28;20097;-79
2022/08/05 02:36:07;;;;;;;7.10;4.40;;;;;;;23.57;58.16;101363.38;5094122;28;20072;-79
2022/08/05 02:38:36;;;;;;;7.25;4.35;;;;;;;23.55;58.32;101382.75;5075675;28;20146;-78
2022/08/05 02:41:06;;;;;;;7.38;4.63;;;;;;;23.53;58.56;101398.50;5108497;28;20143;-79
2022/08/05 02:43:48;;;;;;;6.53;4.90;;;;;;;23.53;58.23;101397.66;5092130;28;20056;-79
2022/08/05 02:46:37;;;;;;;8.38;4.70;;;;;;;23.53;58.23;101392.16;5093412;28;20028;-79
2022/08/05 02:49:37;;;;;;;7.35;5.07;;;;;;;23.50;58.25;101387.03;5091498;28;20036;-77
2022/08/05 02:52:13;;;;;;;5.40;4.65;;;;;;;23.45;58.40;101380.22;5092732;28;20095;-77
2022/08/05 02:54:57;;;;;;;7.22;4.53;;;;;;;23.43;58.33;101390.50;5093150;28;20040;-77
2022/08/05 02:57:29;;;;;;;7.35;4.05;;;;;;;23.41;58.31;101399.94;5092604;28;20409;-77
2022/08/05 03:00:15;;;;;;;6.43;4.13;;;;;;;23.40;58.04;101409.19;5093108;28;20393;-78
2022/08/05 03:02:44;;;;;;;9.93;5.00;;;;;;;23.38;58.38;101405.78;5092995;28;20039;-77
2022/08/05 03:05:13;;;;;;;8.18;4.75;;;;;;;23.36;58.04;101388.66;5093038;28;20044;-77
2022/08/05 03:07:42;;;;;;;9.55;5.15;;;;;;;23.34;58.36;101377.03;5092467;27;20044;-77
2022/08/05 03:10:28;;;;;;;7.00;4.78;;;;;;;23.32;58.20;101374.47;5093023;28;20044;-77
2022/08/05 03:12:59;;;;;;;9.57;5.03;;;;;;;23.27;58.10;101360.44;5091706;28;20485;-78
2022/08/05 03:15:25;;;;;;;9.57;5.03;;;;;;;23.23;58.50;101348.13;5092649;28;20462;-77
2022/08/05 03:17:56;;;;;;;7.90;4.80;;;;;;;23.18;58.32;101345.06;5092080;28;20032;-79
2022/08/05 03:20:25;;;;;;;8.20;5.32;;;;;;;23.14;58.60;101344.56;5092960;28;20059;-77
2022/08/05 03:22:54;;;;;;;8.02;5.28;;;;;;;23.12;58.64;101343.06;5092895;28;20500;-77
2022/08/05 03:25:24;;;;;;;9.48;5.90;;;;;;;23.12;58.72;101345.78;5091677;28;20052;-77
2022/08/05 03:28:11;;;;;;;12.73;5.68;;;;;;;23.11;58.70;101341.34;5092752;28;20516;-77
2022/08/05 03:30:40;;;;;;;7.38;5.32;;;;;;;23.09;58.72;101351.63;5092792;28;20501;-76
2022/08/05 03:33:08;;;;;;;13.20;6.32;;;;;;;23.08;58.67;101360.88;5093249;28;20383;-77
2022/08/05 03:35:35;;;;;;;7.35;5.50;;;;;;;23.07;58.90;101357.28;5091102;28;20050;-78
2022/08/05 03:38:09;;;;;;;8.65;5.82;;;;;;;23.08;58.85;101372.69;5093064;28;20423;-78
2022/08/05 03:40:43;;;;;;;9.15;5.70;;;;;;;23.10;58.85;101378.00;5093014;28;20448;-78
2022/08/05 03:43:19;;;;;;;10.20;5.72;;;;;;;23.09;59.41;101376.28;5092809;28;20042;-78
2022/08/05 03:46:06;;;;;;;9.18;5.50;;;;;;;23.08;58.86;101374.56;5092791;28;20397;-77
2022/08/05 03:48:34;;;;;;;11.25;6.07;;;;;;;23.06;58.79;101366.53;5092735;28;20097;-78
2022/08/05 03:51:19;;;;;;;10.77;5.80;;;;;;;23.06;58.92;101373.91;5091004;28;20040;-78
2022/08/05 03:54:18;;;;;;;9.25;6.00;;;;;;;23.05;58.90;101377.69;5091107;28;20040;-78
2022/08/05 03:57:10;;;;;;;7.80;6.30;;;;;;;23.09;58.80;101393.56;5091826;28;20032;-78
2022/08/05 03:59:50;;;;;;;8.07;6.50;;;;;;;23.10;58.83;101395.28;5074947;28;20497;-77
2022/08/05 04:02:24;;;;;;;9.98;6.20;;;;;;;23.10;58.90;101392.53;5091657;28;20515;-77
2022/08/05 04:05:15;;;;;;;11.60;6.72;;;;;;;23.12;58.77;101395.09;5091414;28;20489;-76
2022/08/05 04:07:42;;;;;;;13.38;6.80;;;;;;;23.11;58.88;101388.78;5091879;28;20044;-75
2022/08/05 04:10:25;;;;;;;13.68;7.78;;;;;;;23.12;58.65;101397.84;5092463;28;20048;-75
2022/08/05 04:12:56;;;;;;;11.38;7.18;;;;;;;23.09;58.96;101387.25;5092064;28;20048;-76
2022/08/05 04:15:26;;;;;;;11.38;7.05;;;;;;;23.08;58.84;101383.66;5090870;28;20040;-75
2022/08/05 04:18:04;;;;;;;9.88;7.75;;;;;;;23.04;58.75;101376.81;5092027;28;20051;-76
2022/08/05 04:20:34;;;;;;;9.88;6.90;;;;;;;23.02;58.97;101378.84;5091977;28;20101;-74
2022/08/05 04:23:02;;;;;;;11.20;7.43;;;;;;;23.03;59.15;101379.69;5090505;28;20541;-74
2022/08/05 04:25:29;;;;;;;11.85;7.00;;;;;;;23.05;59.08;101384.00;5090781;28;20490;-75
2022/08/05 04:28:17;;;;;;;7.47;6.22;;;;;;;23.05;58.86;101384.00;5091889;28;20044;-76
2022/08/05 04:30:44;;;;;;;10.45;6.53;;;;;;;23.06;58.60;101398.56;5091555;28;20036;-77
2022/08/05 04:33:15;;;;;;;9.35;6.40;;;;;;;23.07;58.90;101408.50;5089923;28;20139;-77
2022/08/05 04:36:02;;;;;;;8.73;6.30;;;;;;;23.06;58.81;101415.00;5090315;28;20040;-77
2022/08/05 04:38:48;;;;;;;10.35;6.38;;;;;;;23.03;58.89;101427.13;5091611;28;20402;-76
2022/08/05 04:41:17;;;;;;;7.28;6.30;;;;;;;23.02;58.75;101414.47;5091484;28;20046;-75
2022/08/05 04:43:45;;;;;;;9.38;6.85;;;;;;;23.03;58.77;101412.56;5091116;28;20038;-75
2022/08/05 04:46:18;;;;;;;7.60;6.47;;;;;;;23.03;58.99;101410.69;5090747;28;20043;-76
2022/08/05 04:48:54;;;;;;;15.57;7.18;;;;;;;23.03;58.75;101409.84;5090901;28;20036;-75
2022/08/05 04:51:24;;;;;;;10.23;6.78;;;;;;;23.02;58.95;101414.47;5073789;28;20048;-75
2022/08/05 04:54:00;;;;;;;9.93;6.53;;;;;;;23.01;59.14;101403.69;5090056;28;20044;-75
2022/08/05 04:56:27;;;;;;;9.68;6.85;;;;;;;22.99;59.31;101412.06;5091609;28;20097;-75
2022/08/05 04:59:00;;;;;;;9.93;6.55;;;;;;;22.98;59.11;101420.47;5091303;28;20056;-76
2022/08/05 05:01:48;;;;;;;9.93;7.35;;;;;;;22.97;59.30;101421.50;5091390;28;20036;-76
2022/08/05 05:04:34;;;;;;;8.25;5.93;;;;;;;22.98;59.18;101421.31;5090749;27;20056;-76
2022/08/05 05:07:04;;;;;;;9.05;6.47;;;;;;;22.99;59.30;101409.34;5092039;28;20044;-77
2022/08/05 05:09:35;;;;;;;8.88;6.05;;;;;;;22.97;59.05;101403.19;5092865;28;20036;-77
2022/08/05 05:12:04;;;;;;;10.52;6.65;;;;;;;22.95;59.20;101412.59;5091756;28;20422;-77
2022/08/05 05:14:31;;;;;;;8.40;6.07;;;;;;;22.91;58.99;101417.59;5094223;27;20079;-76
2022/08/05 05:17:02;;;;;;;11.93;6.55;;;;;;;22.87;58.89;101409.88;5095067;28;20583;-77
2022/08/05 05:19:33;;;;;;;10.75;6.05;;;;;;;22.87;59.17;101416.22;5095132;28;20086;-76
2022/08/05 05:22:10;;;;;;;11.25;6.20;;;;;;;22.86;59.00;101411.78;5094993;28;20486;-76
2022/08/05 05:24:54;;;;;;;9.70;6.10;;;;;;;22.87;59.05;101409.88;5094009;28;20094;-77
2022/08/05 05:27:26;;;;;;;11.75;5.97;;;;;;;22.87;59.13;101402.53;5094990;28;20111;-76
2022/08/05 05:30:15;;;;;;;8.43;6.07;;;;;;;22.89;59.13;101407.84;5093551;28;20031;-76
2022/08/05 05:33:02;;;;;;;9.68;6.72;;;;;;;22.88;59.00;101406.13;5094648;28;20044;-76
2022/08/05 05:35:45;;;;;;;8.85;6.05;;;;;;;22.88;59.24;101417.94;5096248;28;20119;-76
2022/08/05 05:38:13;;;;;;;8.13;6.35;;;;;;;22.88;59.32;101411.59;5096582;28;20062;-75
2022/08/05 05:40:41;;;;;;;9.40;5.50;;;;;;;22.89;59.08;101421.53;5095878;28;20044;-75
2022/08/05 05:43:18;;;;;;;8.32;6.03;;;;;;;22.92;59.14;101429.38;5094790;28;20044;-75
2022/08/05 05:46:05;;;;;;;8.85;6.35;;;;;;;22.95;58.96;101435.38;5096475;28;20036;-76
2022/08/05 05:48:42;;;;;;;8.70;5.80;;;;;;;22.98;58.88;101437.75;5097918;28;20050;-75
2022/08/05 05:51:09;;;;;;;12.77;6.60;;;;;;;22.98;59.29;101429.53;5098204;28;20546;-75
2022/08/05 05:53:42;;;;;;;9.43;6.40;;;;;;;22.97;59.27;101426.97;5095294;28;20040;-76
2022/08/05 05:56:29;;;;;;;11.35;6.35;;;;;;;22.95;59.34;101429.03;5095138;28;20052;-75
2022/08/05 05:59:04;;;;;;;11.15;6.68;;;;;;;22.94;59.28;101422.72;5094551;28;20497;-75
2022/08/05 06:01:37;;;;;;;8.00;6.40;;;;;;;22.95;59.27;101421.69;5094801;28;20070;-75
2022/08/05 06:04:10;;;;;;;10.45;7.07;;;;;;;22.95;59.57;101431.78;5094773;28;20040;-74
2022/08/05 06:06:41;;;;;;;8.05;6.45;;;;;;;22.97;59.41;101433.31;5094375;28;20587;-75
2022/08/05 06:09:08;;;;;;;8.75;6.60;;;;;;;22.98;59.42;101434.16;5094121;28;20062;-75
2022/08/05 06:11:44;;;;;;;10.07;6.93;;;;;;;22.98;59.50;101437.75;5092848;28;20044;-74
2022/08/05 06:14:27;;;;;;;9.63;7.05;;;;;;;22.98;59.62;101450.59;5094439;28;20085;-72
2022/08/05 06:16:54;;;;;;;8.85;7.20;;;;;;;23.02;59.92;101449.22;5092663;28;20052;-74
2022/08/05 06:19:22;;;;;;;9.23;6.78;;;;;;;23.04;59.90;101441.72;5093502;28;20104;-74
2022/08/05 06:22:04;;;;;;;9.38;6.88;;;;;;;23.07;59.63;101441.38;5094236;28;20044;-75
2022/08/05 06:24:41;;;;;;;9.32;6.50;;;;;;;23.07;59.68;101449.59;5077148;28;20131;-74
2022/08/05 06:27:14;;;;;;;9.43;7.30;;;;;;;23.10;59.45;101462.94;5077544;28;20058;-74
2022/08/05 06:30:01;;;;;;;11.05;6.43;;;;;;;23.10;59.65;101460.19;5095061;28;20044;-74
2022/08/05 06:32:43;;;;;;;10.32;7.88;;;;;;;23.11;59.52;101460.00;5093741;28;20508;-74
2022/08/05 06:35:12;;;;;;;11.02;7.30;;;;;;;23.12;59.66;101471.84;5095310;28;20509;-75
2022/08/05 06:37:59;;;;;;;9.88;7.13;;;;;;;23.12;59.60;101478.16;5093831;28;20044;-74
2022/08/05 06:40:36;;;;;;;12.13;7.13;;;;;;;23.13;59.42;101468.91;5098425;28;20051;-75
2022/08/05 06:43:08;;;;;;;8.82;6.57;;;;;;;23.16;59.49;101472.34;5094445;28;20048;-76
2022/08/05 06:45:55;;;;;;;12.10;7.43;;;;;;;23.17;59.98;101468.56;5092422;28;20579;-77
2022/08/05 06:48:33;;;;;;;9.07;6.65;;;;;;;23.18;59.35;101459.31;5093655;27;20138;-76
2022/08/05 06:51:21;;;;;;;7.78;6.93;;;;;;;23.16;59.76;101462.22;5078816;28;20036;-77
2022/08/05 06:53:59;;;;;;;10.77;7.07;;;;;;;23.17;59.92;101468.56;5093421;28;20039;-76
2022/08/05 06:56:28;;;;;;;10.95;7.22;;;;;;;23.19;59.81;101472.84;5092346;28;20119;-76
2022/08/05 06:58:55;;;;;;;13.38;7.38;;;;;;;23.21;59.96;101472.66;5092614;28;20406;-76
2022/08/05 07:01:23;;;;;;;9.50;7.15;;;;;;;23.22;60.03;101483.44;5092280;28;20370;-76
2022/08/05 07:04:01;;;;;;;11.60;8.00;;;;;;;23.25;60.01;101484.97;5092543;28;20040;-76
2022/08/05 07:06:29;;;;;;;11.43;7.45;;;;;;;23.24;60.03;101486.00;5092315;28;20105;-77
2022/08/05 07:08:57;;;;;;;12.20;7.80;;;;;;;23.25;60.21;101484.97;5090800;28;20130;-77
2022/08/05 07:11:26;;;;;;;10.00;6.50;;;;;;;23.26;60.44;101490.28;5092590;28;20048;-76
2022/08/05 07:16:59;;;;;;;10.88;6.18;;;;;;;23.25;60.13;101494.06;5092503;28;20040;-74
2022/08/05 07:19:46;;;;;;;9.73;5.97;;;;;;;23.27;60.25;101499.34;5072842;28;20509;-74
2022/08/05 07:22:32;;;;;;;10.48;5.97;;;;;;;23.30;60.17;101502.59;5072623;28;20040;-74
2022/08/05 07:25:02;;;;;;;7.57;5.57;;;;;;;23.34;60.35;101508.59;5072686;28;20118;-72
2022/08/05 07:27:50;;;;;;;8.15;6.25;;;;;;;23.38;60.54;101505.31;5074669;28;20036;-73
2022/08/05 07:30:26;;;;;;;11.77;5.75;;;;;;;23.43;60.37;101513.00;5093120;28;20444;-73
2022/08/05 07:33:02;;;;;;;12.00;6.75;;;;;;;23.45;60.49;101510.94;5092805;28;20039;-72
2022/08/05 07:35:34;;;;;;;8.10;6.47;;;;;;;23.49;60.40;101515.03;5075408;28;20052;-73
2022/08/05 07:38:20;;;;;;;9.60;6.43;;;;;;;23.57;60.45;101522.41;5091742;28;20043;-73
2022/08/05 07:41:07;;;;;;;10.73;6.70;;;;;;;23.60;60.27;101525.66;5091346;28;20040;-74
2022/08/05 07:43:56;;;;;;;10.90;6.13;;;;;;;23.63;60.33;101529.94;5093582;28;20426;-77
2022/08/05 07:46:28;;;;;;;9.82;6.60;;;;;;;23.62;60.34;101515.38;5093211;28;20044;-76
2022/08/05 07:48:58;;;;;;;10.07;6.43;;;;;;;23.65;60.27;101517.75;5093779;28;20058;-76
2022/08/05 07:51:32;;;;;;;11.45;6.88;;;;;;;23.68;60.28;101520.13;5091796;28;20038;-76
2022/08/05 07:54:05;;;;;;;9.63;6.40;;;;;;;23.74;60.21;101522.16;5093838;28;20068;-74
2022/08/05 07:56:36;;;;;;;10.80;6.70;;;;;;;23.79;60.05;101524.41;5071593;28;20048;-75
2022/08/05 07:59:22;;;;;;;12.57;6.60;;;;;;;23.88;60.04;101534.28;5064719;28;20036;-72
2022/08/05 08:02:06;;;;;;;8.85;6.03;;;;;;;23.94;59.87;101539.06;5093637;28;20051;-77
2022/08/05 08:04:45;;;;;;;10.93;5.68;;;;;;;23.95;59.54;101543.53;5093081;28;20111;-75
2022/08/05 08:07:12;;;;;;;8.88;5.32;;;;;;;23.97;59.47;101537.84;5092518;27;20060;-73
2022/08/05 08:09:40;;;;;;;8.57;4.75;;;;;;;23.96;59.27;101545.22;5091738;28;20040;-72
2022/08/05 08:12:07;;;;;;;10.48;5.03;;;;;;;23.97;59.43;101546.09;5092436;28;20036;-78
2022/08/05 08:14:54;;;;;;;6.75;4.40;;;;;;;23.98;59.21;101540.41;5091645;28;20036;-83
2022/08/05 08:17:21;;;;;;;6.97;4.45;;;;;;;24.02;59.42;101546.41;5070928;28;20091;-77
2022/08/05 08:19:48;;;;;;;9.10;4.78;;;;;;;24.09;59.40;101558.38;5071150;28;20041;-76
2022/08/05 08:22:35;;;;;;;5.93;4.15;;;;;;;24.14;58.94;101555.09;5070664;28;20051;-76
2022/08/05 08:25:03;;;;;;;7.63;3.38;;;;;;;24.19;58.86;101560.88;5070975;28;20066;-77
2022/08/05 08:27:42;;;;;;;8.98;3.35;;;;;;;24.26;58.65;101564.63;5071017;28;20041;-78
2022/08/05 08:30:14;;;;;;;8.18;2.75;;;;;;;24.34;58.30;101559.09;5070846;28;20475;-76
2022/08/05 08:33:09;;;;;;;4.43;2.20;;;;;;;24.42;57.81;101569.19;5070958;28;20049;-77
2022/08/05 08:35:40;;;;;;;6.30;2.42;;;;;;;24.42;57.37;101570.03;5070717;28;20064;-76
2022/08/05 08:38:26;;;;;;;4.85;2.25;;;;;;;24.47;57.23;101584.06;5070717;28;20037;-77
2022/08/05 08:41:07;;;;;;;3.47;1.60;;;;;;;24.52;56.84;101589.88;5070886;28;20044;-77
2022/08/05 08:43:39;;;;;;;5.75;1.92;;;;;;;24.57;56.34;101584.72;5070946;28;20558;-77
2022/08/05 08:46:28;;;;;;;4.47;1.90;;;;;;;24.66;56.06;101586.38;5070570;28;20052;-77
2022/08/05 08:48:56;;;;;;;4.53;2.33;;;;;;;24.80;56.03;101590.19;5072493;28;20499;-78
2022/08/05 08:51:46;;;;;;;3.88;2.00;;;;;;;24.97;55.79;101597.31;5073327;28;20411;-76
2022/08/05 08:54:34;;;;;;;4.18;2.05;;;;;;;25.15;55.64;101596.97;5059428;28;20044;-77
2022/08/05 08:57:05;;;;;;;4.60;1.60;;;;;;;25.24;55.54;101601.34;5074249;28;20044;-78
2022/08/05 08:59:37;;;;;;;;;;;;;;;25.27;55.31;101606.50;5075001;28;20114;-78
2022/08/05 09:02:07;;;;;;;6.53;1.75;;;;;;;25.32;54.66;101604.03;5072885;28;19973;-77
2022/08/05 09:04:39;;;;;;;6.50;1.92;;;;;;;25.32;54.37;101606.78;5074388;28;20052;-77
2022/08/05 09:07:25;;;;;;;5.32;1.40;;;;;;;25.33;54.39;101614.00;5074143;28;20045;-77
2022/08/05 09:09:55;;;;;;;3.25;1.45;;;;;;;25.30;54.05;101619.88;5056627;28;20055;-78
2022/08/05 09:12:21;;;;;;;4.25;1.50;;;;;;;25.30;54.19;101613.53;5073779;28;20044;-77
2022/08/05 09:14:53;;;;;;;3.45;1.50;;;;;;;25.30;54.19;101619.88;5072858;28;20072;-78
2022/08/05 09:17:31;;;;;;;3.63;1.70;;;;;;;25.34;53.65;101618.47;5073059;28;20044;-77
2022/08/05 09:20:12;;;;;;;3.45;1.60;;;;;;;25.38;53.58;101626.34;5089824;28;20422;-78
2022/08/05 09:23:16;;;;;;;4.05;1.35;;;;;;;25.41;53.21;101631.47;5073026;28;20395;-78
2022/08/05 09:25:49;;;;;;;3.63;1.77;;;;;;;25.40;52.74;101624.25;5056465;28;20048;-78
2022/08/05 09:28:30;;;;;;;5.15;1.77;;;;;;;25.44;52.84;101631.09;5072758;28;20044;-78
2022/08/05 09:31:03;;;;;;;5.90;1.75;;;;;;;25.49;52.79;101632.22;5072642;28;20036;-77
2022/08/05 09:34:05;;;;;;;3.03;1.63;;;;;;;25.55;52.74;101636.97;5089381;28;20051;-77
2022/08/05 09:36:48;;;;;;;3.88;1.55;;;;;;;25.60;52.35;101636.41;5072512;28;20059;-78
2022/08/05 09:39:25;;;;;;;4.18;1.50;;;;;;;25.63;52.48;101647.03;5073686;28;20074;-78
2022/08/05 09:42:14;;;;;;;1.92;1.60;;;;;;;25.70;52.32;101642.53;5073561;28;20049;-78
2022/08/05 09:44:53;;;;;;;3.10;1.95;;;;;;;25.75;51.65;101647.47;5057023;28;20102;-76
2022/08/05 09:47:25;;;;;;;4.80;1.88;;;;;;;25.76;51.47;101641.78;5056037;28;20044;-78
2022/08/05 09:50:12;;;;;;;3.10;2.00;;;;;;;25.77;51.63;101643.47;5073746;28;20036;-78
2022/08/05 09:52:43;;;;;;;4.53;2.20;;;;;;;25.74;51.36;101652.13;5073264;28;20040;-78
2022/08/05 09:55:12;;;;;;;3.95;1.98;;;;;;;25.65;50.83;101647.72;5073679;28;20102;-77
2022/08/05 09:57:58;;;;;;;5.80;1.40;;;;;;;25.56;50.48;101663.44;5073503;28;20044;-78
2022/08/05 10:00:26;;;;;;;3.25;1.20;;;;;;;25.45;50.04;101663.91;5071677;28;20568;-77
2022/08/05 10:03:08;;;;;;;3.67;1.75;;;;;;;25.34;49.88;101662.47;5073328;28;20102;-79
2022/08/05 10:05:35;;;;;;;2.83;1.80;;;;;;;25.27;49.93;101661.50;5073687;28;20040;-78
2022/08/05 10:08:05;;;;;;;5.18;2.05;;;;;;;25.25;50.07;101663.53;5073191;28;20048;-78
2022/08/05 10:10:51;;;;;;;3.95;2.20;;;;;;;25.23;50.10;101662.88;5073215;28;20037;-78
2022/08/05 10:13:35;;;;;;;3.92;2.05;;;;;;;25.16;50.10;101661.91;5073176;28;20041;-78
2022/08/05 10:16:27;;;;;;;4.57;2.03;;;;;;;25.19;50.21;101682.66;5073260;28;20032;-79
2022/08/05 10:18:55;;;;;;;6.10;2.17;;;;;;;25.24;50.18;101681.06;5073470;28;20049;-78
2022/08/05 10:21:22;;;;;;;2.00;1.40;;;;;;;25.32;49.94;101677.44;5072948;28;20040;-79
2022/08/05 10:23:53;;;;;;;3.85;1.98;;;;;;;25.40;49.43;101680.09;5072945;28;20131;-78
2022/08/05 10:26:25;;;;;;;4.65;1.77;;;;;;;25.48;49.16;101673.69;5072554;28;20068;-79
2022/08/05 10:28:59;;;;;;;1.98;1.23;;;;;;;25.57;49.21;101680.81;5071508;28;20114;-78
2022/08/05 10:31:26;;;;;;;2.35;1.50;;;;;;;25.65;48.66;101675.22;5072694;28;20478;-79
2022/08/05 10:34:13;;;;;;;2.70;1.17;;;;;;;25.76;48.67;101673.94;5072075;28;20040;-79
2022/08/05 10:36:42;;;;;;;3.05;0.93;;;;;;;25.90;48.51;101675.84;5071318;28;20414;-79
2022/08/05 10:39:28;;;;;;;2.53;0.90;;;;;;;26.09;48.15;101674.44;5072624;28;20039;-79
2022/08/05 10:42:20;;;;;;;3.03;0.95;;;;;;;26.28;47.60;101676.59;5072554;28;20040;-79
2022/08/05 10:45:01;;;;;;;3.43;1.00;;;;;;;26.47;47.00;101681.56;5072714;28;20039;-80
2022/08/05 10:47:48;;;;;;;2.50;1.00;;;;;;;26.67;46.66;101683.69;5073113;28;20294;-80
2022/08/05 10:51:07;;;;;;;3.40;0.95;;;;;;;26.80;45.43;101679.22;5073390;28;20067;-79
2022/08/05 10:53:59;;;;;;;1.65;0.70;;;;;;;26.94;45.45;101680.19;5072022;28;20044;-80
2022/08/05 10:56:50;;;;;;;1.45;0.60;;;;;;;27.17;45.10;101680.88;5072270;28;20063;-78
2022/08/05 10:59:29;;;;;;;1.13;0.50;;;;;;;27.42;43.81;101677.72;5079808;28;20040;-76
2022/08/05 11:02:16;;;;;;;2.78;0.80;;;;;;;27.62;43.16;101678.78;5092188;28;20043;-77
2022/08/05 11:05:07;;;;;;;2.20;0.40;;;;;;;27.76;42.45;101691.63;5092073;27;20055;-76
2022/08/05 11:07:56;;;;;;;1.45;0.50;;;;;;;27.84;41.91;101687.84;5092388;28;20050;-78
2022/08/05 11:10:30;;;;;;;1.60;0.60;;;;;;;27.95;41.49;101690.03;5090701;28;20044;-78
2022/08/05 11:12:58;;;;;;;2.05;0.50;;;;;;;27.98;40.88;101695.16;5073924;28;20062;-78
2022/08/05 11:15:42;;;;;;;3.63;0.50;;;;;;;28.02;40.35;101704.75;5090448;28;20101;-75
2022/08/05 11:18:32;;;;;;;2.63;0.50;;;;;;;28.12;40.41;101696.94;5090569;28;20127;-75
2022/08/05 11:21:01;;;;;;;0.80;0.30;;;;;;;28.23;39.80;101706.59;5090373;28;20044;-76
2022/08/05 11:23:52;;;;;;;1.83;0.47;;;;;;;28.37;39.34;101708.41;5090231;28;20509;-77
2022/08/05 11:26:38;;;;;;;1.38;0.63;;;;;;;28.57;39.77;101693.81;5091364;28;20043;-76
2022/08/05 11:29:06;;;;;;;1.73;0.63;;;;;;;28.73;38.66;101698.97;5090302;27;20136;-76
2022/08/05 11:31:43;;;;;;;1.02;0.50;;;;;;;28.80;38.22;101699.84;5091735;28;20081;-75
2022/08/05 11:34:36;;;;;;;1.95;0.50;;;;;;;28.91;37.68;101710.31;5091599;27;20067;-75
2022/08/05 11:37:04;;;;;;;2.13;0.50;;;;;;;28.99;37.58;101701.00;5091426;28;20054;-81
2022/08/05 11:39:51;;;;;;;3.00;0.70;;;;;;;29.08;37.31;101708.91;5090445;28;20047;-73
2022/08/05 11:42:27;;;;;;;1.50;0.65;;;;;;;29.18;36.99;101708.50;5089991;28;20040;-76
2022/08/05 11:45:03;;;;;;;0.88;0.50;;;;;;;29.24;36.41;101715.09;5090276;28;20047;-75
2022/08/05 11:47:34;;;;;;;9.70;0.90;;;;;;;29.33;36.29;101717.44;5090254;28;20040;-77
2022/08/05 11:50:16;;;;;;;1.92;0.40;;;;;;;29.45;36.16;101720.47;5090785;28;20048;-76
2022/08/05 11:52:43;;;;;;;1.00;0.50;;;;;;;29.51;36.37;101732.59;5091187;28;20050;-77
2022/08/05 11:55:18;;;;;;;4.22;0.50;;;;;;;29.56;35.84;101728.13;5091442;28;20032;-79
2022/08/05 11:57:46;;;;;;;1.27;0.50;;;;;;;29.62;35.46;101724.50;5090356;28;20143;-78
2022/08/05 12:00:33;;;;;;;1.90;1.00;;;;;;;29.68;35.23;101728.34;5091663;28;20047;-76
2022/08/05 12:03:20;;;;;;;3.80;0.60;;;;;;;29.53;34.47;101727.72;5090688;28;20048;-77
2022/08/05 12:06:03;;;;;;;4.30;0.98;;;;;;;29.45;35.09;101731.53;5091661;28;20063;-76
2022/08/05 12:08:32;;;;;;;;;;;;;;;29.51;35.79;101743.69;5092194;28;20040;-80
2022/08/05 12:11:02;;;;;;;1.05;0.50;;;;;;;29.61;35.21;101747.72;5091429;28;19919;-78
2022/08/05 12:13:37;;;;;;;2.33;0.57;;;;;;;29.64;35.09;101747.28;5091105;28;20081;-80
2022/08/05 12:16:18;;;;;;;0.90;0.40;;;;;;;29.72;35.08;101746.22;5091618;28;20055;-80